sensor_id;sensor_type;location;lat;lon;timestamp;P1;durP1;ratioP1;P2;durP2;ratioP2
82511;SDS011;72152;65.012;25.464;2023-09-12T00:02:41;11.40;;;7.70;;
82511;SDS011;72152;65.012;25.464;2023-09-12T00:05:27;10.80;;;7.30;;
82511;SDS011;72152;65.012;25.464;2023-09-12T00:08:17;9.70;;;7.00;;
82511;SDS011;72152;65.012;25.464;2023-09-12T00:11:10;10.60;;;7.40;;
82511;SDS011;72152;65.012;25.464;2023-09-12T00:13:57;12.00;;;6.90;;
82511;SDS011;72152;65.012;25.464;2023-09-12T00:16:44;11.00;;;7.30;;
82511;SDS011;72152;65.012;25.464;2023-09-12T00:19:30;11.30;;;6.80;;
82511;SDS011;72152;65.012;25.464;2023-09-12T00:22:13;11.50;;;6.90;;
82511;SDS011;72152;65.012;25.464;2023-09-12T00:25:05;9.10;;;6.60;;
82511;SDS011;72152;65.012;25.464;2023-09-12T00:27:57;11.10;;;7.20;;
82511;SDS011;72152;65.012;25.464;2023-09-12T00:30:51;10.50;;;6.90;;
82511;SDS011;72152;65.012;25.464;2023-09-12T00:33:34;10.20;;;6.70;;
82511;SDS011;72152;65.012;25.464;2023-09-12T00:36:21;9.10;;;6.80;;
82511;SDS011;72152;65.012;25.464;2023-09-12T00:39:05;10.10;;;6.80;;
82511;SDS011;72152;65.012;25.464;2023-09-12T00:41:49;9.40;;;6.70;;
82511;SDS011;72152;65.012;25.464;2023-09-12T00:44:37;10.40;;;6.30;;
82511;SDS011;72152;65.012;25.464;2023-09-12T00:47:27;9.10;;;6.40;;
82511;SDS011;72152;65.012;25.464;2023-09-12T00:50:16;9.90;;;6.40;;
82511;SDS011;72152;65.012;25.464;2023-09-12T00:53:05;8.90;;;6.80;;
82511;SDS011;72152;65.012;25.464;2023-09-12T00:55:58;10.20;;;6.40;;
82511;SDS011;72152;65.012;25.464;2023-09-12T00:58:45;8.90;;;6.70;;
82511;SDS011;72152;65.012;25.464;2023-09-12T01:01:42;9.30;;;6.40;;
82511;SDS011;72152;65.012;25.464;2023-09-12T01:04:29;8.60;;;6.30;;
82511;SDS011;72152;65.012;25.464;2023-09-12T01:07:13;10.80;;;7.10;;
82511;SDS011;72152;65.012;25.464;2023-09-12T01:10:00;8.90;;;6.30;;
82511;SDS011;72152;65.012;25.464;2023-09-12T01:12:52;8.90;;;6.30;;
82511;SDS011;72152;65.012;25.464;2023-09-12T01:15:34;10.10;;;6.60;;
82511;SDS011;72152;65.012;25.464;2023-09-12T01:18:25;9.90;;;6.50;;
82511;SDS011;72152;65.012;25.464;2023-09-12T01:21:22;9.40;;;6.30;;
82511;SDS011;72152;65.012;25.464;2023-09-12T01:24:24;9.90;;;6.10;;
82511;SDS011;72152;65.012;25.464;2023-09-12T01:27:27;9.50;;;6.40;;
82511;SDS011;72152;65.012;25.464;2023-09-12T01:30:17;10.80;;;6.20;;
82511;SDS011;72152;65.012;25.464;2023-09-12T01:33:05;10.30;;;6.60;;
82511;SDS011;72152;65.012;25.464;2023-09-12T01:35:56;10.70;;;6.20;;
82511;SDS011;72152;65.012;25.464;2023-09-12T01:38:37;9.90;;;5.90;;
82511;SDS011;72152;65.012;25.464;2023-09-12T01:41:18;8.10;;;5.90;;
82511;SDS011;72152;65.012;25.464;2023-09-12T01:44:05;9.40;;;6.20;;
82511;SDS011;72152;65.012;25.464;2023-09-12T01:46:54;9.00;;;6.00;;
82511;SDS011;72152;65.012;25.464;2023-09-12T01:49:45;8.40;;;5.90;;
82511;SDS011;72152;65.012;25.464;2023-09-12T01:52:28;9.10;;;6.50;;
82511;SDS011;72152;65.012;25.464;2023-09-12T01:55:19;8.30;;;5.90;;
82511;SDS011;72152;65.012;25.464;2023-09-12T01:58:03;9.00;;;6.60;;
82511;SDS011;72152;65.012;25.464;2023-09-12T02:00:52;10.80;;;6.70;;
82511;SDS011;72152;65.012;25.464;2023-09-12T02:03:44;10.60;;;6.40;;
82511;SDS011;72152;65.012;25.464;2023-09-12T02:06:29;8.00;;;6.00;;
82511;SDS011;72152;65.012;25.464;2023-09-12T02:09:15;10.40;;;6.80;;
82511;SDS011;72152;65.012;25.464;2023-09-12T02:12:04;9.40;;;6.30;;
82511;SDS011;72152;65.012;25.464;2023-09-12T02:14:49;9.40;;;6.60;;
82511;SDS011;72152;65.012;25.464;2023-09-12T02:17:36;11.20;;;6.40;;
82511;SDS011;72152;65.012;25.464;2023-09-12T02:20:28;9.20;;;6.40;;
82511;SDS011;72152;65.012;25.464;2023-09-12T02:23:18;9.70;;;6.00;;
82511;SDS011;72152;65.012;25.464;2023-09-12T02:26:03;8.80;;;6.20;;
82511;SDS011;72152;65.012;25.464;2023-09-12T02:28:49;10.80;;;6.70;;
82511;SDS011;72152;65.012;25.464;2023-09-12T02:31:40;9.90;;;6.50;;
82511;SDS011;72152;65.012;25.464;2023-09-12T02:34:22;13.20;;;7.20;;
82511;SDS011;72152;65.012;25.464;2023-09-12T02:37:09;9.30;;;6.70;;
82511;SDS011;72152;65.012;25.464;2023-09-12T02:39:57;10.50;;;6.60;;
82511;SDS011;72152;65.012;25.464;2023-09-12T02:42:47;10.50;;;6.40;;
82511;SDS011;72152;65.012;25.464;2023-09-12T02:45:31;9.40;;;6.30;;
82511;SDS011;72152;65.012;25.464;2023-09-12T02:48:20;8.90;;;5.90;;
82511;SDS011;72152;65.012;25.464;2023-09-12T02:51:08;9.10;;;6.70;;
82511;SDS011;72152;65.012;25.464;2023-09-12T02:53:59;10.40;;;6.30;;
82511;SDS011;72152;65.012;25.464;2023-09-12T02:56:54;8.80;;;6.30;;
82511;SDS011;72152;65.012;25.464;2023-09-12T02:59:37;9.50;;;6.50;;
82511;SDS011;72152;65.012;25.464;2023-09-12T03:02:23;8.20;;;5.90;;
82511;SDS011;72152;65.012;25.464;2023-09-12T03:05:06;10.50;;;6.10;;
82511;SDS011;72152;65.012;25.464;2023-09-12T03:07:56;10.50;;;6.80;;
82511;SDS011;72152;65.012;25.464;2023-09-12T03:10:43;9.60;;;6.50;;
82511;SDS011;72152;65.012;25.464;2023-09-12T03:13:33;13.50;;;6.80;;
82511;SDS011;72152;65.012;25.464;2023-09-12T03:16:18;9.80;;;6.70;;
82511;SDS011;72152;65.012;25.464;2023-09-12T03:19:02;10.60;;;7.10;;
82511;SDS011;72152;65.012;25.464;2023-09-12T03:21:48;11.00;;;6.60;;
82511;SDS011;72152;65.012;25.464;2023-09-12T03:24:39;12.00;;;6.80;;
82511;SDS011;72152;65.012;25.464;2023-09-12T03:27:24;10.60;;;6.40;;
82511;SDS011;72152;65.012;25.464;2023-09-12T03:30:15;9.50;;;6.40;;
82511;SDS011;72152;65.012;25.464;2023-09-12T03:33:03;11.00;;;7.00;;
82511;SDS011;72152;65.012;25.464;2023-09-12T03:35:50;9.60;;;6.60;;
82511;SDS011;72152;65.012;25.464;2023-09-12T03:38:35;9.60;;;6.60;;
82511;SDS011;72152;65.012;25.464;2023-09-12T03:41:23;9.60;;;6.70;;
82511;SDS011;72152;65.012;25.464;2023-09-12T03:44:14;10.20;;;6.90;;
82511;SDS011;72152;65.012;25.464;2023-09-12T03:47:01;11.60;;;7.10;;
82511;SDS011;72152;65.012;25.464;2023-09-12T03:49:58;12.50;;;7.20;;
82511;SDS011;72152;65.012;25.464;2023-09-12T03:52:53;11.90;;;7.00;;
82511;SDS011;72152;65.012;25.464;2023-09-12T03:55:44;10.60;;;7.10;;
82511;SDS011;72152;65.012;25.464;2023-09-12T03:58:32;13.80;;;6.70;;
82511;SDS011;72152;65.012;25.464;2023-09-12T04:01:19;10.30;;;6.60;;
82511;SDS011;72152;65.012;25.464;2023-09-12T04:04:06;10.30;;;7.00;;
82511;SDS011;72152;65.012;25.464;2023-09-12T04:06:57;10.40;;;7.10;;
82511;SDS011;72152;65.012;25.464;2023-09-12T04:09:39;10.40;;;6.90;;
82511;SDS011;72152;65.012;25.464;2023-09-12T04:12:23;9.90;;;6.80;;
82511;SDS011;72152;65.012;25.464;2023-09-12T04:15:06;9.60;;;6.50;;
82511;SDS011;72152;65.012;25.464;2023-09-12T04:17:56;10.20;;;7.10;;
82511;SDS011;72152;65.012;25.464;2023-09-12T04:20:43;12.10;;;7.00;;
82511;SDS011;72152;65.012;25.464;2023-09-12T04:23:31;10.20;;;6.40;;
82511;SDS011;72152;65.012;25.464;2023-09-12T04:26:19;9.30;;;6.20;;
82511;SDS011;72152;65.012;25.464;2023-09-12T04:29:03;10.70;;;6.90;;
82511;SDS011;72152;65.012;25.464;2023-09-12T04:31:58;10.40;;;7.20;;
82511;SDS011;72152;65.012;25.464;2023-09-12T04:34:48;11.70;;;7.10;;
82511;SDS011;72152;65.012;25.464;2023-09-12T04:37:35;10.80;;;7.10;;
82511;SDS011;72152;65.012;25.464;2023-09-12T04:40:26;28.70;;;17.20;;
82511;SDS011;72152;65.012;25.464;2023-09-12T04:43:11;14.30;;;8.90;;
82511;SDS011;72152;65.012;25.464;2023-09-12T04:45:52;10.10;;;7.00;;
82511;SDS011;72152;65.012;25.464;2023-09-12T04:48:38;12.10;;;6.80;;
82511;SDS011;72152;65.012;25.464;2023-09-12T04:51:22;11.20;;;7.10;;
82511;SDS011;72152;65.012;25.464;2023-09-12T04:54:11;9.00;;;6.40;;
82511;SDS011;72152;65.012;25.464;2023-09-12T04:57:07;11.00;;;6.40;;
82511;SDS011;72152;65.012;25.464;2023-09-12T04:59:54;11.80;;;6.70;;
82511;SDS011;72152;65.012;25.464;2023-09-12T05:02:38;14.20;;;7.30;;
82511;SDS011;72152;65.012;25.464;2023-09-12T05:05:20;10.60;;;7.20;;
82511;SDS011;72152;65.012;25.464;2023-09-12T05:08:07;9.90;;;7.10;;
82511;SDS011;72152;65.012;25.464;2023-09-12T05:10:55;11.80;;;7.00;;
82511;SDS011;72152;65.012;25.464;2023-09-12T05:13:40;10.60;;;7.00;;
82511;SDS011;72152;65.012;25.464;2023-09-12T05:16:25;10.40;;;6.40;;
82511;SDS011;72152;65.012;25.464;2023-09-12T05:19:15;19.80;;;11.30;;
82511;SDS011;72152;65.012;25.464;2023-09-12T05:21:58;13.30;;;7.50;;
82511;SDS011;72152;65.012;25.464;2023-09-12T05:24:42;9.90;;;6.90;;
82511;SDS011;72152;65.012;25.464;2023-09-12T05:27:26;10.40;;;6.60;;
82511;SDS011;72152;65.012;25.464;2023-09-12T05:30:07;9.80;;;6.20;;
82511;SDS011;72152;65.012;25.464;2023-09-12T05:32:58;10.70;;;6.60;;
82511;SDS011;72152;65.012;25.464;2023-09-12T05:35:45;11.80;;;6.90;;
82511;SDS011;72152;65.012;25.464;2023-09-12T05:38:33;10.80;;;6.60;;
82511;SDS011;72152;65.012;25.464;2023-09-12T05:41:21;9.80;;;6.60;;
82511;SDS011;72152;65.012;25.464;2023-09-12T05:44:04;11.80;;;7.00;;
82511;SDS011;72152;65.012;25.464;2023-09-12T05:46:55;11.60;;;6.20;;
82511;SDS011;72152;65.012;25.464;2023-09-12T05:49:43;10.60;;;6.80;;
82511;SDS011;72152;65.012;25.464;2023-09-12T05:52:31;11.00;;;6.50;;
82511;SDS011;72152;65.012;25.464;2023-09-12T05:55:18;8.90;;;6.20;;
82511;SDS011;72152;65.012;25.464;2023-09-12T05:58:05;12.00;;;7.30;;
82511;SDS011;72152;65.012;25.464;2023-09-12T06:00:52;10.20;;;6.50;;
82511;SDS011;72152;65.012;25.464;2023-09-12T06:03:40;8.70;;;6.00;;
82511;SDS011;72152;65.012;25.464;2023-09-12T06:06:27;9.60;;;6.10;;
82511;SDS011;72152;65.012;25.464;2023-09-12T06:09:11;8.70;;;5.90;;
82511;SDS011;72152;65.012;25.464;2023-09-12T06:11:58;10.40;;;6.50;;
82511;SDS011;72152;65.012;25.464;2023-09-12T06:14:34;10.10;;;6.00;;
82511;SDS011;72152;65.012;25.464;2023-09-12T06:17:19;13.20;;;6.30;;
82511;SDS011;72152;65.012;25.464;2023-09-12T06:19:59;12.20;;;7.70;;
82511;SDS011;72152;65.012;25.464;2023-09-12T06:22:45;10.10;;;6.30;;
82511;SDS011;72152;65.012;25.464;2023-09-12T06:25:37;9.30;;;6.40;;
82511;SDS011;72152;65.012;25.464;2023-09-12T06:28:32;10.40;;;6.40;;
82511;SDS011;72152;65.012;25.464;2023-09-12T06:31:18;9.40;;;5.80;;
82511;SDS011;72152;65.012;25.464;2023-09-12T06:34:13;11.70;;;6.80;;
82511;SDS011;72152;65.012;25.464;2023-09-12T06:37:06;13.70;;;6.50;;
82511;SDS011;72152;65.012;25.464;2023-09-12T06:39:48;9.30;;;6.40;;
82511;SDS011;72152;65.012;25.464;2023-09-12T06:42:35;9.00;;;5.90;;
82511;SDS011;72152;65.012;25.464;2023-09-12T06:45:24;9.90;;;6.50;;
82511;SDS011;72152;65.012;25.464;2023-09-12T06:48:12;10.80;;;6.10;;
82511;SDS011;72152;65.012;25.464;2023-09-12T06:51:04;10.40;;;6.80;;
82511;SDS011;72152;65.012;25.464;2023-09-12T06:53:51;10.70;;;5.90;;
82511;SDS011;72152;65.012;25.464;2023-09-12T06:56:43;9.20;;;6.00;;
82511;SDS011;72152;65.012;25.464;2023-09-12T06:59:24;8.40;;;5.60;;
82511;SDS011;72152;65.012;25.464;2023-09-12T07:02:16;9.80;;;5.70;;
82511;SDS011;72152;65.012;25.464;2023-09-12T07:05:03;10.90;;;5.50;;
82511;SDS011;72152;65.012;25.464;2023-09-12T07:07:55;9.50;;;5.50;;
82511;SDS011;72152;65.012;25.464;2023-09-12T07:10:43;10.60;;;5.80;;
82511;SDS011;72152;65.012;25.464;2023-09-12T07:13:29;9.30;;;5.60;;
82511;SDS011;72152;65.012;25.464;2023-09-12T07:16:07;8.50;;;5.10;;
82511;SDS011;72152;65.012;25.464;2023-09-12T07:18:53;9.50;;;5.20;;
82511;SDS011;72152;65.012;25.464;2023-09-12T07:21:41;8.60;;;4.70;;
82511;SDS011;72152;65.012;25.464;2023-09-12T07:24:31;7.60;;;5.00;;
82511;SDS011;72152;65.012;25.464;2023-09-12T07:27:15;10.10;;;5.30;;
82511;SDS011;72152;65.012;25.464;2023-09-12T07:30:08;8.30;;;4.70;;
82511;SDS011;72152;65.012;25.464;2023-09-12T07:32:54;11.40;;;7.20;;
82511;SDS011;72152;65.012;25.464;2023-09-12T07:35:38;9.20;;;5.10;;
82511;SDS011;72152;65.012;25.464;2023-09-12T07:38:24;8.70;;;5.10;;
82511;SDS011;72152;65.012;25.464;2023-09-12T07:41:12;9.20;;;5.20;;
82511;SDS011;72152;65.012;25.464;2023-09-12T07:43:58;9.80;;;5.50;;
82511;SDS011;72152;65.012;25.464;2023-09-12T07:46:48;8.80;;;5.20;;
82511;SDS011;72152;65.012;25.464;2023-09-12T07:49:31;6.90;;;5.00;;
82511;SDS011;72152;65.012;25.464;2023-09-12T07:52:22;8.60;;;4.80;;
82511;SDS011;72152;65.012;25.464;2023-09-12T07:55:06;9.00;;;5.20;;
82511;SDS011;72152;65.012;25.464;2023-09-12T07:58:06;11.40;;;5.40;;
82511;SDS011;72152;65.012;25.464;2023-09-12T08:00:55;8.10;;;5.20;;
82511;SDS011;72152;65.012;25.464;2023-09-12T08:03:50;8.90;;;4.90;;
82511;SDS011;72152;65.012;25.464;2023-09-12T08:06:37;8.20;;;5.30;;
82511;SDS011;72152;65.012;25.464;2023-09-12T08:09:46;8.50;;;5.50;;
82511;SDS011;72152;65.012;25.464;2023-09-12T08:12:34;10.20;;;5.70;;
82511;SDS011;72152;65.012;25.464;2023-09-12T08:18:14;8.50;;;5.30;;
82511;SDS011;72152;65.012;25.464;2023-09-12T08:21:03;10.40;;;5.60;;
82511;SDS011;72152;65.012;25.464;2023-09-12T08:23:54;8.60;;;5.10;;
82511;SDS011;72152;65.012;25.464;2023-09-12T08:26:37;9.20;;;5.10;;
82511;SDS011;72152;65.012;25.464;2023-09-12T08:29:22;8.80;;;5.40;;
82511;SDS011;72152;65.012;25.464;2023-09-12T08:32:06;8.70;;;5.20;;
82511;SDS011;72152;65.012;25.464;2023-09-12T08:34:49;10.80;;;5.90;;
82511;SDS011;72152;65.012;25.464;2023-09-12T08:37:43;9.80;;;5.40;;
82511;SDS011;72152;65.012;25.464;2023-09-12T08:40:26;9.20;;;5.10;;
82511;SDS011;72152;65.012;25.464;2023-09-12T08:43:14;8.30;;;4.90;;
82511;SDS011;72152;65.012;25.464;2023-09-12T08:45:57;9.70;;;5.30;;
82511;SDS011;72152;65.012;25.464;2023-09-12T08:48:47;10.80;;;5.30;;
82511;SDS011;72152;65.012;25.464;2023-09-12T08:51:41;9.20;;;5.30;;
82511;SDS011;72152;65.012;25.464;2023-09-12T08:54:22;8.90;;;4.90;;
82511;SDS011;72152;65.012;25.464;2023-09-12T08:57:12;8.10;;;5.10;;
82511;SDS011;72152;65.012;25.464;2023-09-12T09:00:02;9.80;;;5.00;;
82511;SDS011;72152;65.012;25.464;2023-09-12T09:02:47;7.40;;;5.10;;
82511;SDS011;72152;65.012;25.464;2023-09-12T09:05:34;9.80;;;5.40;;
82511;SDS011;72152;65.012;25.464;2023-09-12T09:08:25;11.10;;;5.40;;
82511;SDS011;72152;65.012;25.464;2023-09-12T09:11:12;9.40;;;4.90;;
82511;SDS011;72152;65.012;25.464;2023-09-12T09:14:05;10.20;;;4.80;;
82511;SDS011;72152;65.012;25.464;2023-09-12T09:16:54;8.80;;;4.90;;
82511;SDS011;72152;65.012;25.464;2023-09-12T09:19:45;9.10;;;5.60;;
82511;SDS011;72152;65.012;25.464;2023-09-12T09:22:34;10.30;;;5.00;;
82511;SDS011;72152;65.012;25.464;2023-09-12T09:25:20;9.10;;;5.20;;
82511;SDS011;72152;65.012;25.464;2023-09-12T09:28:16;10.30;;;5.10;;
82511;SDS011;72152;65.012;25.464;2023-09-12T09:31:03;8.40;;;5.00;;
82511;SDS011;72152;65.012;25.464;2023-09-12T09:33:48;9.00;;;4.80;;
82511;SDS011;72152;65.012;25.464;2023-09-12T09:36:38;8.70;;;5.20;;
82511;SDS011;72152;65.012;25.464;2023-09-12T09:39:26;11.60;;;5.10;;
82511;SDS011;72152;65.012;25.464;2023-09-12T09:42:13;7.50;;;5.10;;
82511;SDS011;72152;65.012;25.464;2023-09-12T09:45:02;10.30;;;5.20;;
82511;SDS011;72152;65.012;25.464;2023-09-12T09:47:50;8.60;;;5.50;;
82511;SDS011;72152;65.012;25.464;2023-09-12T09:50:35;9.10;;;5.50;;
82511;SDS011;72152;65.012;25.464;2023-09-12T09:53:21;8.30;;;5.40;;
82511;SDS011;72152;65.012;25.464;2023-09-12T09:56:13;8.70;;;5.20;;
82511;SDS011;72152;65.012;25.464;2023-09-12T09:59:03;8.50;;;4.80;;
82511;SDS011;72152;65.012;25.464;2023-09-12T10:01:46;7.50;;;4.70;;
82511;SDS011;72152;65.012;25.464;2023-09-12T10:04:35;9.60;;;5.10;;
82511;SDS011;72152;65.012;25.464;2023-09-12T10:07:22;8.60;;;4.90;;
82511;SDS011;72152;65.012;25.464;2023-09-12T10:10:18;9.10;;;5.10;;
82511;SDS011;72152;65.012;25.464;2023-09-12T10:13:07;8.70;;;5.30;;
82511;SDS011;72152;65.012;25.464;2023-09-12T10:15:58;9.80;;;5.00;;
82511;SDS011;72152;65.012;25.464;2023-09-12T10:18:48;8.40;;;5.10;;
82511;SDS011;72152;65.012;25.464;2023-09-12T10:21:40;8.10;;;5.10;;
82511;SDS011;72152;65.012;25.464;2023-09-12T10:24:38;8.80;;;4.70;;
82511;SDS011;72152;65.012;25.464;2023-09-12T10:27:33;8.10;;;5.40;;
82511;SDS011;72152;65.012;25.464;2023-09-12T10:30:20;7.40;;;4.70;;
82511;SDS011;72152;65.012;25.464;2023-09-12T10:33:04;7.80;;;5.20;;
82511;SDS011;72152;65.012;25.464;2023-09-12T10:35:54;7.80;;;4.70;;
82511;SDS011;72152;65.012;25.464;2023-09-12T10:38:43;10.00;;;5.40;;
82511;SDS011;72152;65.012;25.464;2023-09-12T10:41:31;8.90;;;4.80;;
82511;SDS011;72152;65.012;25.464;2023-09-12T10:44:19;10.70;;;5.90;;
82511;SDS011;72152;65.012;25.464;2023-09-12T10:50:01;8.00;;;4.50;;
82511;SDS011;72152;65.012;25.464;2023-09-12T10:52:49;8.70;;;4.60;;
82511;SDS011;72152;65.012;25.464;2023-09-12T10:55:46;8.40;;;5.40;;
82511;SDS011;72152;65.012;25.464;2023-09-12T11:02:26;8.80;;;4.80;;
82511;SDS011;72152;65.012;25.464;2023-09-12T11:08:28;11.20;;;5.40;;
82511;SDS011;72152;65.012;25.464;2023-09-12T11:11:20;7.90;;;5.00;;
82511;SDS011;72152;65.012;25.464;2023-09-12T11:14:10;7.50;;;4.40;;
82511;SDS011;72152;65.012;25.464;2023-09-12T11:20:06;9.20;;;4.50;;
82511;SDS011;72152;65.012;25.464;2023-09-12T11:22:54;8.40;;;5.10;;
82511;SDS011;72152;65.012;25.464;2023-09-12T11:26:04;7.50;;;4.70;;
82511;SDS011;72152;65.012;25.464;2023-09-12T11:28:51;9.40;;;4.80;;
82511;SDS011;72152;65.012;25.464;2023-09-12T11:31:58;9.40;;;5.00;;
82511;SDS011;72152;65.012;25.464;2023-09-12T11:34:54;8.90;;;4.90;;
82511;SDS011;72152;65.012;25.464;2023-09-12T11:37:43;7.90;;;4.70;;
82511;SDS011;72152;65.012;25.464;2023-09-12T11:43:29;8.20;;;4.90;;
82511;SDS011;72152;65.012;25.464;2023-09-12T11:46:17;9.20;;;4.70;;
82511;SDS011;72152;65.012;25.464;2023-09-12T11:49:10;8.80;;;5.20;;
82511;SDS011;72152;65.012;25.464;2023-09-12T11:51:58;7.20;;;5.10;;
82511;SDS011;72152;65.012;25.464;2023-09-12T11:54:48;9.60;;;4.80;;
82511;SDS011;72152;65.012;25.464;2023-09-12T11:57:39;7.70;;;4.60;;
82511;SDS011;72152;65.012;25.464;2023-09-12T12:00:32;7.70;;;4.60;;
82511;SDS011;72152;65.012;25.464;2023-09-12T12:03:21;7.00;;;4.40;;
82511;SDS011;72152;65.012;25.464;2023-09-12T12:06:13;6.80;;;4.20;;
82511;SDS011;72152;65.012;25.464;2023-09-12T12:09:02;8.90;;;4.80;;
82511;SDS011;72152;65.012;25.464;2023-09-12T12:11:54;7.70;;;5.20;;
82511;SDS011;72152;65.012;25.464;2023-09-12T12:14:45;10.20;;;4.70;;
82511;SDS011;72152;65.012;25.464;2023-09-12T12:17:32;7.00;;;4.60;;
82511;SDS011;72152;65.012;25.464;2023-09-12T12:20:19;9.10;;;5.10;;
82511;SDS011;72152;65.012;25.464;2023-09-12T12:23:03;8.40;;;4.80;;
82511;SDS011;72152;65.012;25.464;2023-09-12T12:25:51;9.10;;;5.70;;
82511;SDS011;72152;65.012;25.464;2023-09-12T12:28:40;8.90;;;5.50;;
82511;SDS011;72152;65.012;25.464;2023-09-12T12:31:22;13.90;;;8.10;;
82511;SDS011;72152;65.012;25.464;2023-09-12T12:34:09;8.90;;;5.20;;
82511;SDS011;72152;65.012;25.464;2023-09-12T12:37:04;9.00;;;4.80;;
82511;SDS011;72152;65.012;25.464;2023-09-12T12:39:50;9.60;;;4.80;;
82511;SDS011;72152;65.012;25.464;2023-09-12T12:42:33;6.70;;;4.40;;
82511;SDS011;72152;65.012;25.464;2023-09-12T12:45:21;6.60;;;4.20;;
82511;SDS011;72152;65.012;25.464;2023-09-12T12:48:07;9.40;;;5.30;;
82511;SDS011;72152;65.012;25.464;2023-09-12T12:50:57;8.00;;;4.00;;
82511;SDS011;72152;65.012;25.464;2023-09-12T12:53:52;7.00;;;4.60;;
82511;SDS011;72152;65.012;25.464;2023-09-12T12:56:43;8.90;;;4.90;;
82511;SDS011;72152;65.012;25.464;2023-09-12T12:59:30;7.80;;;4.30;;
82511;SDS011;72152;65.012;25.464;2023-09-12T13:02:23;7.70;;;4.60;;
82511;SDS011;72152;65.012;25.464;2023-09-12T13:08:15;8.70;;;5.30;;
82511;SDS011;72152;65.012;25.464;2023-09-12T13:10:53;8.50;;;4.80;;
82511;SDS011;72152;65.012;25.464;2023-09-12T13:13:42;7.80;;;4.80;;
82511;SDS011;72152;65.012;25.464;2023-09-12T13:16:30;7.70;;;4.80;;
82511;SDS011;72152;65.012;25.464;2023-09-12T13:19:09;8.00;;;5.30;;
82511;SDS011;72152;65.012;25.464;2023-09-12T13:21:55;8.80;;;5.30;;
82511;SDS011;72152;65.012;25.464;2023-09-12T13:24:44;9.00;;;4.70;;
82511;SDS011;72152;65.012;25.464;2023-09-12T13:27:43;8.60;;;4.90;;
82511;SDS011;72152;65.012;25.464;2023-09-12T13:33:20;8.60;;;5.70;;
82511;SDS011;72152;65.012;25.464;2023-09-12T13:36:06;8.40;;;5.30;;
82511;SDS011;72152;65.012;25.464;2023-09-12T13:38:49;8.10;;;5.10;;
82511;SDS011;72152;65.012;25.464;2023-09-12T13:41:36;7.70;;;4.70;;
82511;SDS011;72152;65.012;25.464;2023-09-12T13:44:21;9.60;;;5.60;;
82511;SDS011;72152;65.012;25.464;2023-09-12T13:47:11;8.50;;;5.20;;
82511;SDS011;72152;65.012;25.464;2023-09-12T13:50:01;7.50;;;4.60;;
82511;SDS011;72152;65.012;25.464;2023-09-12T13:53:01;8.00;;;4.70;;
82511;SDS011;72152;65.012;25.464;2023-09-12T13:55:50;7.90;;;5.10;;
82511;SDS011;72152;65.012;25.464;2023-09-12T13:58:39;8.00;;;5.00;;
82511;SDS011;72152;65.012;25.464;2023-09-12T14:04:20;9.00;;;6.00;;
82511;SDS011;72152;65.012;25.464;2023-09-12T14:06:59;8.70;;;5.80;;
82511;SDS011;72152;65.012;25.464;2023-09-12T14:09:37;10.20;;;6.90;;
82511;SDS011;72152;65.012;25.464;2023-09-12T14:12:17;8.60;;;5.50;;
82511;SDS011;72152;65.012;25.464;2023-09-12T14:15:00;10.30;;;5.50;;
82511;SDS011;72152;65.012;25.464;2023-09-12T14:17:44;8.40;;;4.70;;
82511;SDS011;72152;65.012;25.464;2023-09-12T14:20:32;11.30;;;5.70;;
82511;SDS011;72152;65.012;25.464;2023-09-12T14:23:18;9.70;;;4.70;;
82511;SDS011;72152;65.012;25.464;2023-09-12T14:26:05;8.30;;;5.40;;
82511;SDS011;72152;65.012;25.464;2023-09-12T14:28:45;10.00;;;5.50;;
82511;SDS011;72152;65.012;25.464;2023-09-12T14:34:23;10.30;;;5.00;;
82511;SDS011;72152;65.012;25.464;2023-09-12T14:37:10;8.50;;;5.20;;
82511;SDS011;72152;65.012;25.464;2023-09-12T14:40:00;8.30;;;5.00;;
82511;SDS011;72152;65.012;25.464;2023-09-12T14:42:49;9.10;;;5.20;;
82511;SDS011;72152;65.012;25.464;2023-09-12T14:45:33;10.40;;;5.50;;
82511;SDS011;72152;65.012;25.464;2023-09-12T14:48:16;9.70;;;5.50;;
82511;SDS011;72152;65.012;25.464;2023-09-12T14:51:06;10.60;;;5.00;;
82511;SDS011;72152;65.012;25.464;2023-09-12T14:53:55;9.80;;;5.20;;
82511;SDS011;72152;65.012;25.464;2023-09-12T14:56:38;7.60;;;4.70;;
82511;SDS011;72152;65.012;25.464;2023-09-12T14:59:27;8.50;;;5.60;;
82511;SDS011;72152;65.012;25.464;2023-09-12T15:02:14;8.40;;;5.50;;
82511;SDS011;72152;65.012;25.464;2023-09-12T15:05:04;8.70;;;5.10;;
82511;SDS011;72152;65.012;25.464;2023-09-12T15:07:50;8.40;;;5.40;;
82511;SDS011;72152;65.012;25.464;2023-09-12T15:10:40;9.50;;;5.70;;
82511;SDS011;72152;65.012;25.464;2023-09-12T15:13:29;10.40;;;5.90;;
82511;SDS011;72152;65.012;25.464;2023-09-12T15:16:11;11.20;;;6.10;;
82511;SDS011;72152;65.012;25.464;2023-09-12T15:18:57;11.60;;;6.10;;
82511;SDS011;72152;65.012;25.464;2023-09-12T15:24:40;10.70;;;6.90;;
82511;SDS011;72152;65.012;25.464;2023-09-12T15:27:34;10.80;;;5.60;;
82511;SDS011;72152;65.012;25.464;2023-09-12T15:30:21;10.10;;;6.20;;
82511;SDS011;72152;65.012;25.464;2023-09-12T15:33:06;8.70;;;5.80;;
82511;SDS011;72152;65.012;25.464;2023-09-12T15:35:51;11.90;;;6.10;;
82511;SDS011;72152;65.012;25.464;2023-09-12T15:38:30;8.30;;;5.40;;
82511;SDS011;72152;65.012;25.464;2023-09-12T15:41:18;9.30;;;5.90;;
82511;SDS011;72152;65.012;25.464;2023-09-12T15:44:04;10.70;;;5.70;;
82511;SDS011;72152;65.012;25.464;2023-09-12T15:46:48;11.30;;;5.80;;
82511;SDS011;72152;65.012;25.464;2023-09-12T15:49:38;11.00;;;6.50;;
82511;SDS011;72152;65.012;25.464;2023-09-12T15:55:15;10.60;;;6.00;;
82511;SDS011;72152;65.012;25.464;2023-09-12T15:58:06;11.30;;;6.00;;
82511;SDS011;72152;65.012;25.464;2023-09-12T16:00:52;12.70;;;6.10;;
82511;SDS011;72152;65.012;25.464;2023-09-12T16:03:37;10.80;;;6.30;;
82511;SDS011;72152;65.012;25.464;2023-09-12T16:09:14;11.20;;;6.90;;
82511;SDS011;72152;65.012;25.464;2023-09-12T16:12:02;13.10;;;6.70;;
82511;SDS011;72152;65.012;25.464;2023-09-12T16:14:54;10.30;;;6.00;;
82511;SDS011;72152;65.012;25.464;2023-09-12T16:20:21;9.90;;;5.50;;
82511;SDS011;72152;65.012;25.464;2023-09-12T16:23:08;11.00;;;6.40;;
82511;SDS011;72152;65.012;25.464;2023-09-12T16:25:57;9.70;;;5.90;;
82511;SDS011;72152;65.012;25.464;2023-09-12T16:28:45;11.80;;;6.30;;
82511;SDS011;72152;65.012;25.464;2023-09-12T16:31:32;15.10;;;6.60;;
82511;SDS011;72152;65.012;25.464;2023-09-12T16:34:18;12.70;;;6.40;;
82511;SDS011;72152;65.012;25.464;2023-09-12T16:37:05;10.40;;;5.70;;
82511;SDS011;72152;65.012;25.464;2023-09-12T16:39:47;10.30;;;5.40;;
82511;SDS011;72152;65.012;25.464;2023-09-12T16:42:30;12.80;;;6.80;;
82511;SDS011;72152;65.012;25.464;2023-09-12T16:45:19;11.90;;;6.40;;
82511;SDS011;72152;65.012;25.464;2023-09-12T16:48:07;12.50;;;7.30;;
82511;SDS011;72152;65.012;25.464;2023-09-12T16:50:53;10.50;;;6.00;;
82511;SDS011;72152;65.012;25.464;2023-09-12T16:53:44;10.60;;;6.70;;
82511;SDS011;72152;65.012;25.464;2023-09-12T16:56:35;10.60;;;6.30;;
82511;SDS011;72152;65.012;25.464;2023-09-12T16:59:20;11.30;;;6.50;;
82511;SDS011;72152;65.012;25.464;2023-09-12T17:02:14;11.20;;;6.30;;
82511;SDS011;72152;65.012;25.464;2023-09-12T17:05:02;12.10;;;6.80;;
82511;SDS011;72152;65.012;25.464;2023-09-12T17:07:42;10.80;;;6.50;;
82511;SDS011;72152;65.012;25.464;2023-09-12T17:10:32;11.30;;;6.30;;
82511;SDS011;72152;65.012;25.464;2023-09-12T17:13:17;10.60;;;6.00;;